Time;durP1;ratioP1;P1;durP2;ratioP2;P2;SDS_P1;SDS_P2;PMS_P1;PMS_P2;Temp;Humidity;BMP_temperature;BMP_pressure;BME280_temperature;BME280_humidity;BME280_pressure;Samples;Min_cycle;Max_cycle;Signal;HPM_P1;HPM_P2
2022/09/12 00:00:34;;;;;;;0.70;0.70;;;;;;;;;;5085822;28;20472;-76
2022/09/12 00:03:02;;;;;;;0.70;0.70;;;;;;;;;;5070469;28;20448;-77
2022/09/12 00:05:30;;;;;;;0.80;0.80;;;;;;;;;;5075732;28;20442;-76
2022/09/12 00:07:56;;;;;;;0.70;0.60;;;;;;;;;;5076388;28;20492;-76
2022/09/12 00:10:23;;;;;;;1.63;1.13;;;;;;;;;;5086343;28;20924;-77
2022/09/12 00:12:50;;;;;;;0.70;0.70;;;;;;;;;;5083306;28;20445;-77
2022/09/12 00:15:17;;;;;;;0.70;0.70;;;;;;;;;;5093828;28;20469;-76
2022/09/12 00:17:43;;;;;;;0.90;0.90;;;;;;;;;;5067349;28;20557;-76
2022/09/12 00:20:11;;;;;;;0.90;0.90;;;;;;;;;;5089260;28;20488;-76
2022/09/12 00:22:38;;;;;;;0.70;0.70;;;;;;;;;;5071692;28;20465;-76
2022/09/12 00:25:05;;;;;;;0.70;0.70;;;;;;;;;;5085735;28;20905;-75
2022/09/12 00:27:32;;;;;;;0.97;0.97;;;;;;;;;;5069135;28;20450;-76
2022/09/12 00:29:59;;;;;;;0.70;0.70;;;;;;;;;;5086998;28;20552;-76
2022/09/12 00:32:26;;;;;;;0.67;0.60;;;;;;;;;;5071423;28;20442;-76
2022/09/12 00:34:53;;;;;;;0.70;0.60;;;;;;;;;;5082055;28;21004;-76
2022/09/12 00:37:21;;;;;;;1.43;1.33;;;;;;;;;;5077775;28;20987;-76
2022/09/12 00:39:48;;;;;;;0.70;0.60;;;;;;;;;;5076864;28;20444;-76
2022/09/12 00:42:14;;;;;;;0.70;0.60;;;;;;;;;;5080729;28;20449;-76
2022/09/12 00:44:46;;;;;;;2.67;2.47;;;;;;;;;;5082731;28;20438;-73
2022/09/12 00:47:26;;;;;;;0.70;0.70;;;;;;;;;;5081766;28;20814;-75
2022/09/12 00:49:58;;;;;;;0.90;0.90;;;;;;;;;;5083179;28;20444;-76
2022/09/12 00:52:34;;;;;;;1.30;1.10;;;;;;;;;;5067619;28;20467;-76
2022/09/12 00:55:19;;;;;;;0.80;0.80;;;;;;;;;;5103688;28;20475;-77
2022/09/12 00:57:52;;;;;;;1.50;1.40;;;;;;;;;;5088672;28;20423;-76
2022/09/12 01:00:23;;;;;;;0.70;0.70;;;;;;;;;;5083937;28;20431;-77
2022/09/12 01:03:03;;;;;;;1.73;1.10;;;;;;;;;;5074528;28;20561;-76
2022/09/12 01:05:35;;;;;;;0.70;0.70;;;;;;;;;;5071319;28;20899;-76
2022/09/12 01:08:09;;;;;;;0.80;0.80;;;;;;;;;;5079786;28;20460;-76
2022/09/12 01:10:41;;;;;;;0.70;0.70;;;;;;;;;;5074361;28;20520;-76
2022/09/12 01:13:13;;;;;;;1.07;0.97;;;;;;;;;;5079840;28;20429;-76
2022/09/12 01:15:45;;;;;;;0.60;0.60;;;;;;;;;;5081565;28;20459;-76
2022/09/12 01:18:20;;;;;;;0.90;0.90;;;;;;;;;;5064632;28;20450;-77
2022/09/12 01:21:14;;;;;;;0.70;0.70;;;;;;;;;;5082879;28;20501;-77
2022/09/12 01:23:53;;;;;;;1.40;1.30;;;;;;;;;;5074623;28;20439;-76
2022/09/12 01:26:40;;;;;;;0.60;0.60;;;;;;;;;;5074961;28;20467;-77
2022/09/12 01:29:18;;;;;;;1.43;1.33;;;;;;;;;;5092798;28;20730;-77
2022/09/12 01:32:06;;;;;;;1.10;1.00;;;;;;;;;;5074328;28;20433;-77
2022/09/12 01:34:38;;;;;;;1.50;1.40;;;;;;;;;;5079635;28;20476;-77
2022/09/12 01:37:13;;;;;;;2.47;2.37;;;;;;;;;;5074564;28;20463;-77
2022/09/12 01:39:50;;;;;;;0.60;0.60;;;;;;;;;;5089384;28;20434;-76
2022/09/12 01:42:30;;;;;;;0.70;0.70;;;;;;;;;;5074660;28;21043;-76
2022/09/12 01:45:13;;;;;;;0.60;0.60;;;;;;;;;;5082170;28;20502;-77
2022/09/12 01:47:51;;;;;;;1.00;1.00;;;;;;;;;;5083904;28;20458;-76
2022/09/12 01:50:42;;;;;;;0.70;0.70;;;;;;;;;;5087665;28;20817;-76
2022/09/12 01:53:14;;;;;;;2.37;2.17;;;;;;;;;;5067594;28;20463;-73
2022/09/12 01:55:48;;;;;;;0.97;0.90;;;;;;;;;;5087927;28;20961;-76
2022/09/12 01:58:18;;;;;;;0.90;0.90;;;;;;;;;;5079286;28;20983;-76
2022/09/12 02:00:47;;;;;;;3.53;1.70;;;;;;;;;;5077260;28;20773;-77
2022/09/12 02:03:20;;;;;;;0.93;0.93;;;;;;;;;;5078038;28;20447;-77
2022/09/12 02:05:53;;;;;;;0.70;0.70;;;;;;;;;;5081709;28;20445;-77
2022/09/12 02:08:24;;;;;;;0.60;0.60;;;;;;;;;;5083238;28;20524;-75
2022/09/12 02:10:53;;;;;;;1.97;1.77;;;;;;;;;;5072061;28;20456;-76
2022/09/12 02:13:22;;;;;;;0.70;0.70;;;;;;;;;;5083159;28;20440;-76
2022/09/12 02:15:51;;;;;;;0.70;0.70;;;;;;;;;;5071351;28;20477;-75
2022/09/12 02:18:20;;;;;;;0.70;0.70;;;;;;;;;;5082564;28;20432;-76
2022/09/12 02:20:48;;;;;;;1.40;1.30;;;;;;;;;;5084077;28;20845;-76
2022/09/12 02:23:17;;;;;;;0.60;0.60;;;;;;;;;;5082470;28;20542;-75
2022/09/12 02:25:46;;;;;;;1.63;1.23;;;;;;;;;;5089195;28;20534;-77
2022/09/12 02:28:14;;;;;;;2.30;2.20;;;;;;;;;;5077091;28;20434;-76
2022/09/12 02:30:42;;;;;;;0.60;0.60;;;;;;;;;;5061793;28;20944;-76
2022/09/12 02:33:14;;;;;;;1.10;1.00;;;;;;;;;;5073326;28;20431;-76
2022/09/12 02:35:45;;;;;;;0.70;0.70;;;;;;;;;;5069200;28;20475;-76
2022/09/12 02:38:18;;;;;;;1.27;1.17;;;;;;;;;;5080789;28;20441;-76
2022/09/12 02:40:44;;;;;;;0.80;0.80;;;;;;;;;;5090161;28;20426;-76
2022/09/12 02:43:11;;;;;;;0.70;0.70;;;;;;;;;;5081715;28;20443;-75
2022/09/12 02:45:38;;;;;;;0.70;0.70;;;;;;;;;;5080924;28;20490;-76
2022/09/12 02:48:08;;;;;;;0.67;0.63;;;;;;;;;;5082549;28;20944;-75
2022/09/12 02:50:35;;;;;;;1.13;1.07;;;;;;;;;;5063228;28;20469;-76
2022/09/12 02:53:05;;;;;;;0.70;0.70;;;;;;;;;;5084949;28;20440;-76
2022/09/12 02:55:33;;;;;;;0.70;0.70;;;;;;;;;;5077621;28;20466;-77
2022/09/12 02:58:01;;;;;;;0.60;0.60;;;;;;;;;;5059495;28;20450;-75
2022/09/12 03:00:29;;;;;;;2.10;1.07;;;;;;;;;;5064891;28;20455;-77
2022/09/12 03:03:05;;;;;;;2.30;2.20;;;;;;;;;;5080311;28;20438;-76
2022/09/12 03:05:33;;;;;;;1.47;1.13;;;;;;;;;;5082589;28;20462;-76
2022/09/12 03:08:10;;;;;;;0.87;0.87;;;;;;;;;;5083659;28;20447;-77
2022/09/12 03:10:41;;;;;;;0.63;0.63;;;;;;;;;;5072973;28;20427;-76
2022/09/12 03:13:13;;;;;;;0.60;0.60;;;;;;;;;;5060574;28;20437;-76
2022/09/12 03:15:44;;;;;;;0.70;0.70;;;;;;;;;;5077208;28;20469;-77
2022/09/12 03:18:19;;;;;;;0.77;0.77;;;;;;;;;;5077947;28;20819;-76
2022/09/12 03:20:51;;;;;;;0.70;0.70;;;;;;;;;;5091276;28;20547;-77
2022/09/12 03:23:23;;;;;;;0.70;0.60;;;;;;;;;;5082822;28;20438;-77
2022/09/12 03:25:53;;;;;;;1.07;1.00;;;;;;;;;;5075152;28;20879;-76
2022/09/12 03:28:21;;;;;;;0.80;0.80;;;;;;;;;;5092439;28;20450;-77
2022/09/12 03:30:50;;;;;;;0.90;0.87;;;;;;;;;;5074742;28;20448;-77
2022/09/12 03:33:17;;;;;;;0.70;0.70;;;;;;;;;;5082479;28;20455;-77
2022/09/12 03:35:45;;;;;;;0.70;0.60;;;;;;;;;;5086635;28;20563;-77
2022/09/12 03:38:12;;;;;;;1.63;1.53;;;;;;;;;;5083703;28;20435;-76
2022/09/12 03:40:41;;;;;;;0.60;0.60;;;;;;;;;;5080840;28;20541;-76
2022/09/12 03:43:08;;;;;;;0.70;0.70;;;;;;;;;;5076416;28;20453;-76
2022/09/12 03:45:35;;;;;;;0.70;0.70;;;;;;;;;;5065798;28;20499;-76
2022/09/12 03:48:03;;;;;;;0.70;0.70;;;;;;;;;;5092857;28;20477;-76
2022/09/12 03:50:30;;;;;;;0.63;0.60;;;;;;;;;;5092654;28;20958;-77
2022/09/12 03:52:57;;;;;;;0.60;0.60;;;;;;;;;;5081447;28;20457;-75
2022/09/12 03:55:25;;;;;;;0.60;0.60;;;;;;;;;;5084375;28;20453;-76
2022/09/12 03:57:53;;;;;;;0.70;0.70;;;;;;;;;;5088253;28;20511;-75
2022/09/12 04:00:26;;;;;;;0.70;0.70;;;;;;;;;;5085258;28;20426;-77
2022/09/12 04:05:41;;;;;;;1.00;1.00;;;;;;;;;;5099912;28;20455;-76
2022/09/12 04:08:08;;;;;;;0.80;0.80;;;;;;;;;;5080005;28;20450;-76
2022/09/12 04:10:35;;;;;;;0.70;0.70;;;;;;;;;;5079934;28;20943;-76
2022/09/12 04:13:03;;;;;;;0.60;0.60;;;;;;;;;;5089124;28;20454;-77
2022/09/12 04:15:31;;;;;;;1.53;1.43;;;;;;;;;;5075788;28;20516;-76
2022/09/12 04:17:58;;;;;;;0.70;0.67;;;;;;;;;;5076231;28;20511;-76
2022/09/12 04:20:31;;;;;;;0.60;0.60;;;;;;;;;;5094429;28;20562;-77
2022/09/12 04:22:57;;;;;;;1.33;1.13;;;;;;;;;;5081972;28;20837;-77
2022/09/12 04:25:24;;;;;;;0.60;0.60;;;;;;;;;;5081465;28;20436;-77
2022/09/12 04:27:51;;;;;;;0.70;0.70;;;;;;;;;;5086608;28;20446;-78
2022/09/12 04:30:19;;;;;;;1.87;1.00;;;;;;;;;;5086100;28;20415;-77
2022/09/12 04:32:45;;;;;;;0.60;0.60;;;;;;;;;;5069716;28;20451;-77
2022/09/12 04:35:12;;;;;;;0.60;0.60;;;;;;;;;;5082039;28;20440;-78
2022/09/12 04:37:39;;;;;;;1.10;1.10;;;;;;;;;;5081641;28;20442;-77
2022/09/12 04:40:07;;;;;;;0.70;0.70;;;;;;;;;;5091647;28;20993;-77
2022/09/12 04:42:34;;;;;;;0.60;0.60;;;;;;;;;;5088251;28;20997;-78
2022/09/12 04:45:00;;;;;;;0.70;0.67;;;;;;;;;;5094020;28;20434;-78
2022/09/12 04:47:28;;;;;;;0.70;0.70;;;;;;;;;;5078227;28;20924;-77
2022/09/12 04:49:56;;;;;;;0.60;0.60;;;;;;;;;;5080794;28;20474;-79
2022/09/12 04:52:23;;;;;;;0.60;0.60;;;;;;;;;;5081655;28;20454;-77
2022/09/12 04:54:50;;;;;;;0.90;0.90;;;;;;;;;;5083770;28;20423;-78
2022/09/12 04:57:17;;;;;;;1.90;1.47;;;;;;;;;;5084139;28;20474;-78
2022/09/12 04:59:44;;;;;;;0.67;0.60;;;;;;;;;;5083379;28;20837;-78
2022/09/12 05:02:10;;;;;;;0.70;0.63;;;;;;;;;;5081093;28;20443;-78
2022/09/12 05:04:39;;;;;;;0.60;0.60;;;;;;;;;;5080484;28;20536;-78
2022/09/12 05:07:05;;;;;;;0.60;0.60;;;;;;;;;;5079067;28;20459;-77
2022/09/12 05:09:32;;;;;;;1.27;0.93;;;;;;;;;;5075221;28;20456;-78
2022/09/12 05:12:00;;;;;;;0.60;0.60;;;;;;;;;;5083134;28;20436;-77
2022/09/12 05:14:31;;;;;;;0.60;0.60;;;;;;;;;;5084502;28;20516;-79
2022/09/12 05:17:00;;;;;;;1.13;1.07;;;;;;;;;;5063335;28;20464;-78
2022/09/12 05:19:27;;;;;;;0.60;0.60;;;;;;;;;;5083423;28;20493;-78
2022/09/12 05:21:56;;;;;;;1.00;0.90;;;;;;;;;;5081624;28;21025;-77
2022/09/12 05:24:23;;;;;;;0.60;0.60;;;;;;;;;;5066521;28;20484;-77
2022/09/12 05:26:52;;;;;;;0.70;0.70;;;;;;;;;;5080203;28;20492;-76
2022/09/12 05:29:19;;;;;;;0.60;0.60;;;;;;;;;;5080415;28;20429;-76
2022/09/12 05:31:48;;;;;;;0.60;0.60;;;;;;;;;;5077111;28;20452;-76
2022/09/12 05:34:15;;;;;;;0.63;0.60;;;;;;;;;;5076634;28;20446;-75
2022/09/12 05:36:42;;;;;;;0.70;0.70;;;;;;;;;;5077167;28;20477;-76
2022/09/12 05:39:10;;;;;;;0.60;0.60;;;;;;;;;;5058791;28;20453;-76
2022/09/12 05:41:38;;;;;;;1.63;1.53;;;;;;;;;;5079953;28;20532;-75
2022/09/12 05:44:05;;;;;;;0.60;0.60;;;;;;;;;;5065369;28;20959;-76
2022/09/12 05:46:35;;;;;;;0.80;0.80;;;;;;;;;;5086334;28;20870;-76
2022/09/12 05:49:02;;;;;;;0.70;0.70;;;;;;;;;;5083840;28;20828;-75
2022/09/12 05:51:31;;;;;;;0.70;0.70;;;;;;;;;;5080152;28;21369;-76
2022/09/12 05:53:59;;;;;;;0.70;0.70;;;;;;;;;;5089795;28;20474;-76
2022/09/12 05:56:28;;;;;;;1.63;1.53;;;;;;;;;;5073503;28;20563;-77
2022/09/12 05:58:55;;;;;;;0.60;0.60;;;;;;;;;;5073376;28;20457;-77
2022/09/12 06:01:22;;;;;;;0.70;0.70;;;;;;;;;;5087080;28;20465;-76
2022/09/12 06:03:50;;;;;;;0.70;0.70;;;;;;;;;;5086833;28;20453;-76
2022/09/12 06:06:19;;;;;;;0.60;0.60;;;;;;;;;;5075437;28;20459;-76
2022/09/12 06:08:46;;;;;;;0.60;0.60;;;;;;;;;;5078555;28;20454;-76
2022/09/12 06:11:15;;;;;;;0.80;0.80;;;;;;;;;;5083580;28;20447;-76
2022/09/12 06:13:43;;;;;;;0.70;0.70;;;;;;;;;;5086622;28;20432;-76
2022/09/12 06:16:11;;;;;;;2.63;2.43;;;;;;;;;;5073997;28;20536;-76
2022/09/12 06:18:39;;;;;;;0.73;0.73;;;;;;;;;;5084072;28;20431;-76
2022/09/12 06:21:07;;;;;;;0.60;0.60;;;;;;;;;;5080433;28;20499;-76
2022/09/12 06:23:33;;;;;;;0.60;0.60;;;;;;;;;;5063087;28;20435;-76
2022/09/12 06:26:01;;;;;;;0.67;0.63;;;;;;;;;;5075928;28;20439;-77
2022/09/12 06:28:28;;;;;;;0.60;0.60;;;;;;;;;;5075412;28;20449;-76
2022/09/12 06:31:03;;;;;;;0.93;0.83;;;;;;;;;;5061275;28;20814;-75
2022/09/12 06:33:31;;;;;;;0.67;0.60;;;;;;;;;;5090536;28;20489;-75
2022/09/12 06:36:01;;;;;;;0.67;0.67;;;;;;;;;;5074841;28;20459;-76
2022/09/12 06:38:28;;;;;;;0.63;0.63;;;;;;;;;;5074244;28;20434;-75
2022/09/12 06:40:57;;;;;;;1.00;1.00;;;;;;;;;;5076039;28;20441;-76
2022/09/12 06:43:24;;;;;;;0.70;0.70;;;;;;;;;;5078830;28;20454;-76
2022/09/12 06:45:51;;;;;;;1.63;1.53;;;;;;;;;;5081886;28;20448;-75
2022/09/12 06:48:22;;;;;;;1.30;1.17;;;;;;;;;;5079207;28;20901;-75
2022/09/12 06:50:57;;;;;;;0.87;0.87;;;;;;;;;;5081808;28;20511;-75
2022/09/12 06:53:25;;;;;;;8.90;1.17;;;;;;;;;;5078917;28;20916;-74
2022/09/12 06:55:56;;;;;;;1.67;1.20;;;;;;;;;;5073858;28;20476;-75
2022/09/12 06:58:23;;;;;;;0.80;0.80;;;;;;;;;;5074673;28;20434;-74
2022/09/12 07:00:49;;;;;;;0.60;0.60;;;;;;;;;;5086819;28;20437;-74
2022/09/12 07:03:17;;;;;;;0.70;0.70;;;;;;;;;;5068545;28;20456;-75
2022/09/12 07:05:45;;;;;;;0.70;0.70;;;;;;;;;;5078242;28;20489;-75
2022/09/12 07:08:11;;;;;;;1.03;1.00;;;;;;;;;;5063590;28;20448;-75
2022/09/12 07:10:39;;;;;;;0.60;0.60;;;;;;;;;;5082747;28;20464;-75
2022/09/12 07:13:05;;;;;;;1.83;1.40;;;;;;;;;;5081461;28;20472;-75
2022/09/12 07:15:33;;;;;;;1.50;1.40;;;;;;;;;;5088012;28;20934;-75
2022/09/12 07:18:00;;;;;;;0.70;0.70;;;;;;;;;;5065955;28;20837;-74
2022/09/12 07:20:28;;;;;;;0.70;0.70;;;;;;;;;;5074834;28;20447;-74
2022/09/12 07:22:56;;;;;;;0.70;0.70;;;;;;;;;;5081986;28;20458;-74
2022/09/12 07:25:23;;;;;;;0.70;0.60;;;;;;;;;;5075176;28;20445;-75
2022/09/12 07:27:51;;;;;;;0.70;0.60;;;;;;;;;;5078466;28;20439;-74
2022/09/12 07:30:18;;;;;;;1.30;1.20;;;;;;;;;;5089210;28;20952;-74
2022/09/12 07:32:45;;;;;;;0.70;0.70;;;;;;;;;;5078076;28;20443;-74
2022/09/12 07:35:12;;;;;;;7.60;1.87;;;;;;;;;;5073224;28;20443;-76
2022/09/12 07:37:38;;;;;;;0.70;0.60;;;;;;;;;;5080324;28;20467;-78
2022/09/12 07:40:07;;;;;;;0.70;0.60;;;;;;;;;;5078195;28;20453;-78
2022/09/12 07:42:34;;;;;;;1.63;1.53;;;;;;;;;;5080318;28;20449;-73
2022/09/12 07:45:01;;;;;;;1.13;1.07;;;;;;;;;;5079266;28;20449;-75
2022/09/12 07:47:29;;;;;;;0.70;0.70;;;;;;;;;;5065020;28;20442;-76
2022/09/12 07:49:57;;;;;;;0.80;0.80;;;;;;;;;;5083057;28;20441;-76
2022/09/12 07:52:24;;;;;;;1.20;0.90;;;;;;;;;;5056232;28;20493;-76
2022/09/12 07:54:51;;;;;;;1.23;1.17;;;;;;;;;;5076703;28;20427;-76
2022/09/12 07:57:20;;;;;;;0.70;0.60;;;;;;;;;;5081654;28;20464;-75
2022/09/12 07:59:46;;;;;;;0.70;0.70;;;;;;;;;;5084756;28;20531;-74
2022/09/12 08:02:20;;;;;;;0.70;0.70;;;;;;;;;;5066982;28;20544;-73
2022/09/12 08:04:48;;;;;;;1.47;1.37;;;;;;;;;;5070506;28;20441;-73
2022/09/12 08:07:14;;;;;;;0.70;0.70;;;;;;;;;;5077562;28;20501;-73
2022/09/12 08:09:42;;;;;;;0.70;0.60;;;;;;;;;;5078905;28;20484;-74
2022/09/12 08:12:09;;;;;;;0.70;0.70;;;;;;;;;;5079103;28;20477;-74
2022/09/12 08:14:38;;;;;;;3.80;1.53;;;;;;;;;;5077236;28;20449;-73
2022/09/12 08:17:05;;;;;;;1.37;1.27;;;;;;;;;;5075255;28;20565;-75
2022/09/12 08:24:02;;;;;;;0.80;0.80;;;;;;;;;;5086198;28;20456;-75
2022/09/12 08:26:30;;;;;;;0.80;0.70;;;;;;;;;;5090697;28;20433;-75
2022/09/12 08:28:57;;;;;;;2.20;1.00;;;;;;;;;;5085198;28;20913;-75
2022/09/12 08:31:26;;;;;;;0.70;0.70;;;;;;;;;;5084063;28;20422;-75
2022/09/12 08:33:54;;;;;;;0.70;0.70;;;;;;;;;;5092690;28;20454;-75
2022/09/12 08:36:21;;;;;;;4.43;0.93;;;;;;;;;;5085165;28;20500;-75
2022/09/12 08:38:49;;;;;;;0.90;0.87;;;;;;;;;;5089609;28;20430;-74
2022/09/12 08:41:22;;;;;;;0.70;0.70;;;;;;;;;;5080388;28;20450;-76
2022/09/12 08:43:55;;;;;;;1.00;0.80;;;;;;;;;;5087574;28;20519;-74
2022/09/12 08:46:26;;;;;;;0.87;0.87;;;;;;;;;;5084402;28;20435;-75
2022/09/12 08:48:57;;;;;;;1.57;1.10;;;;;;;;;;5089342;28;20445;-75
2022/09/12 08:51:23;;;;;;;0.70;0.63;;;;;;;;;;5081766;28;20971;-75
2022/09/12 08:53:53;;;;;;;1.83;1.43;;;;;;;;;;5083945;28;20412;-75
2022/09/12 08:56:20;;;;;;;0.70;0.70;;;;;;;;;;5087215;28;20410;-75
2022/09/12 08:58:47;;;;;;;0.80;0.70;;;;;;;;;;5080999;28;20464;-75
2022/09/12 09:01:20;;;;;;;0.80;0.80;;;;;;;;;;5082522;28;20924;-74
2022/09/12 09:04:01;;;;;;;0.80;0.73;;;;;;;;;;5081433;28;20560;-75
2022/09/12 09:06:34;;;;;;;0.70;0.60;;;;;;;;;;5091069;28;20424;-74
2022/09/12 09:09:03;;;;;;;0.90;0.70;;;;;;;;;;5085549;28;20874;-75
2022/09/12 09:11:40;;;;;;;0.70;0.60;;;;;;;;;;5082695;28;20447;-76
2022/09/12 09:16:59;;;;;;;0.70;0.70;;;;;;;;;;5104861;28;20452;-75
2022/09/12 09:19:29;;;;;;;0.90;0.90;;;;;;;;;;5088492;28;20427;-74
2022/09/12 09:21:57;;;;;;;2.20;2.10;;;;;;;;;;5079392;28;20441;-75
2022/09/12 09:24:26;;;;;;;0.80;0.80;;;;;;;;;;5083313;28;20769;-74
2022/09/12 09:26:55;;;;;;;1.47;1.37;;;;;;;;;;5085915;28;20901;-74
2022/09/12 09:29:24;;;;;;;1.63;1.53;;;;;;;;;;5090558;28;20496;-74
2022/09/12 09:31:53;;;;;;;0.70;0.70;;;;;;;;;;5089082;28;20434;-74
2022/09/12 09:34:20;;;;;;;0.70;0.60;;;;;;;;;;5073692;28;20467;-75
2022/09/12 09:36:54;;;;;;;1.23;1.13;;;;;;;;;;5089891;28;20461;-75
2022/09/12 09:39:28;;;;;;;1.57;1.47;;;;;;;;;;5084145;28;20447;-74
2022/09/12 09:42:00;;;;;;;0.80;0.60;;;;;;;;;;5076963;28;20419;-74
2022/09/12 09:44:27;;;;;;;0.70;0.60;;;;;;;;;;5078790;28;20873;-73
2022/09/12 09:46:57;;;;;;;1.47;1.13;;;;;;;;;;5081143;28;20454;-74
2022/09/12 09:49:24;;;;;;;0.70;0.60;;;;;;;;;;5082405;28;20795;-73
2022/09/12 09:51:53;;;;;;;0.70;0.60;;;;;;;;;;5083019;28;20511;-72
2022/09/12 09:54:28;;;;;;;0.77;0.60;;;;;;;;;;5082059;28;20914;-73
2022/09/12 09:56:55;;;;;;;0.70;0.60;;;;;;;;;;5080935;28;20532;-73
2022/09/12 09:59:24;;;;;;;0.80;0.70;;;;;;;;;;5090271;28;20619;-73
2022/09/12 10:01:55;;;;;;;1.00;0.80;;;;;;;;;;5082965;28;20434;-73
2022/09/12 10:04:23;;;;;;;0.90;0.70;;;;;;;;;;5075938;28;20499;-73
2022/09/12 10:06:50;;;;;;;0.73;0.63;;;;;;;;;;5086235;28;20477;-73
2022/09/12 10:09:19;;;;;;;0.80;0.70;;;;;;;;;;5086564;28;20445;-74
2022/09/12 10:11:47;;;;;;;1.17;1.07;;;;;;;;;;5073332;28;20427;-75
2022/09/12 10:14:29;;;;;;;0.80;0.70;;;;;;;;;;5074026;28;20546;-74
2022/09/12 10:16:57;;;;;;;0.80;0.60;;;;;;;;;;5079350;28;20786;-74
2022/09/12 10:19:32;;;;;;;1.90;1.27;;;;;;;;;;5084389;28;20443;-75
2022/09/12 10:21:59;;;;;;;1.37;1.27;;;;;;;;;;5080603;28;20462;-73
2022/09/12 10:24:31;;;;;;;0.80;0.57;;;;;;;;;;5087482;28;20549;-74
2022/09/12 10:27:05;;;;;;;0.70;0.50;;;;;;;;;;5074069;28;20433;-74
2022/09/12 10:29:34;;;;;;;1.07;0.97;;;;;;;;;;5071193;28;20460;-74
2022/09/12 10:32:02;;;;;;;0.90;0.70;;;;;;;;;;5088022;28;20431;-74
2022/09/12 10:34:31;;;;;;;2.30;0.80;;;;;;;;;;5076577;28;20560;-74
2022/09/12 10:37:00;;;;;;;1.23;1.13;;;;;;;;;;5064377;28;20459;-75
2022/09/12 10:39:28;;;;;;;0.77;0.67;;;;;;;;;;5077797;28;20424;-74
2022/09/12 10:41:55;;;;;;;0.70;0.60;;;;;;;;;;5073880;28;20528;-74
2022/09/12 10:44:27;;;;;;;0.80;0.80;;;;;;;;;;5082378;28;20482;-74
2022/09/12 10:46:54;;;;;;;1.10;0.80;;;;;;;;;;5085341;28;20445;-75
2022/09/12 10:49:23;;;;;;;0.90;0.70;;;;;;;;;;5072621;28;20439;-74
2022/09/12 10:51:50;;;;;;;0.70;0.50;;;;;;;;;;5073459;28;20987;-73
2022/09/12 10:54:17;;;;;;;1.00;0.80;;;;;;;;;;5075593;28;20482;-73
2022/09/12 10:56:51;;;;;;;1.17;1.07;;;;;;;;;;5086371;28;20447;-73
2022/09/12 10:59:24;;;;;;;0.77;0.60;;;;;;;;;;5080481;28;20550;-72
2022/09/12 11:01:54;;;;;;;0.70;0.50;;;;;;;;;;5073454;28;20427;-73
2022/09/12 11:04:31;;;;;;;0.70;0.50;;;;;;;;;;5074787;28;20447;-73
2022/09/12 11:07:05;;;;;;;0.90;0.80;;;;;;;;;;5086605;28;20453;-73
2022/09/12 11:09:36;;;;;;;0.80;0.73;;;;;;;;;;5078211;28;20435;-73
2022/09/12 11:12:11;;;;;;;0.70;0.50;;;;;;;;;;5083967;28;20435;-73
2022/09/12 11:14:51;;;;;;;0.70;0.50;;;;;;;;;;5080183;28;20439;-73
2022/09/12 11:17:22;;;;;;;0.77;0.70;;;;;;;;;;5084036;28;20439;-74
2022/09/12 11:19:58;;;;;;;0.70;0.60;;;;;;;;;;5081196;28;20447;-75
2022/09/12 11:22:32;;;;;;;0.70;0.60;;;;;;;;;;5074118;28;20545;-74
2022/09/12 11:25:14;;;;;;;1.00;0.83;;;;;;;;;;5073860;28;20418;-74
2022/09/12 11:27:53;;;;;;;0.70;0.50;;;;;;;;;;5072504;28;20442;-74
2022/09/12 11:30:19;;;;;;;0.70;0.50;;;;;;;;;;5091387;28;20418;-74
2022/09/12 11:33:04;;;;;;;0.70;0.50;;;;;;;;;;5090443;28;20817;-74
2022/09/12 11:35:32;;;;;;;0.70;0.50;;;;;;;;;;5079571;28;20519;-73
2022/09/12 11:38:17;;;;;;;0.90;0.80;;;;;;;;;;5081056;28;20833;-74
2022/09/12 11:40:47;;;;;;;0.87;0.83;;;;;;;;;;5073117;28;20431;-73
2022/09/12 11:43:20;;;;;;;0.70;0.50;;;;;;;;;;5083640;28;20450;-73
2022/09/12 11:45:48;;;;;;;0.70;0.60;;;;;;;;;;5080626;28;20442;-72
2022/09/12 11:48:17;;;;;;;0.70;0.50;;;;;;;;;;5079640;28;20497;-74
2022/09/12 11:50:44;;;;;;;0.70;0.50;;;;;;;;;;5090694;28;20466;-73
2022/09/12 11:53:14;;;;;;;0.70;0.60;;;;;;;;;;5076932;28;20443;-73
2022/09/12 11:55:45;;;;;;;0.80;0.80;;;;;;;;;;5077508;28;20458;-75
2022/09/12 11:58:13;;;;;;;0.93;0.70;;;;;;;;;;5079440;28;20706;-73
2022/09/12 12:00:43;;;;;;;0.70;0.60;;;;;;;;;;5081669;28;20438;-75
2022/09/12 12:03:14;;;;;;;1.23;1.13;;;;;;;;;;5085377;28;20446;-75
2022/09/12 12:05:43;;;;;;;0.80;0.70;;;;;;;;;;5086551;28;20785;-75
2022/09/12 12:08:11;;;;;;;0.80;0.60;;;;;;;;;;5089009;28;20771;-75
2022/09/12 12:10:40;;;;;;;0.70;0.60;;;;;;;;;;5088985;28;20454;-75
2022/09/12 12:13:08;;;;;;;1.00;0.90;;;;;;;;;;5086136;28;20924;-74
2022/09/12 12:15:45;;;;;;;1.20;1.10;;;;;;;;;;5071086;28;20447;-74
2022/09/12 12:18:15;;;;;;;0.70;0.60;;;;;;;;;;5092970;28;20466;-75
2022/09/12 12:20:42;;;;;;;0.70;0.50;;;;;;;;;;5095327;28;20499;-74
2022/09/12 12:23:20;;;;;;;0.70;0.60;;;;;;;;;;5084542;28;20444;-75
2022/09/12 12:25:51;;;;;;;0.80;0.60;;;;;;;;;;5090591;28;20947;-75
2022/09/12 12:28:37;;;;;;;0.80;0.60;;;;;;;;;;5070360;28;20446;-74
2022/09/12 12:31:06;;;;;;;0.80;0.60;;;;;;;;;;5083155;28;20422;-75
2022/09/12 12:33:53;;;;;;;0.73;0.60;;;;;;;;;;5085257;28;20541;-74
2022/09/12 12:36:41;;;;;;;0.70;0.70;;;;;;;;;;5085130;28;20864;-74
2022/09/12 12:39:27;;;;;;;0.70;0.50;;;;;;;;;;5075025;28;20475;-74
2022/09/12 12:41:53;;;;;;;0.70;0.60;;;;;;;;;;5075712;28;20545;-73
2022/09/12 12:44:38;;;;;;;0.70;0.60;;;;;;;;;;5086881;28;20441;-74
2022/09/12 12:47:14;;;;;;;0.70;0.60;;;;;;;;;;5075492;28;20554;-74
2022/09/12 12:49:41;;;;;;;0.70;0.60;;;;;;;;;;5077723;28;20431;-74
2022/09/12 12:52:15;;;;;;;0.80;0.60;;;;;;;;;;5088462;28;20503;-74
2022/09/12 12:54:51;;;;;;;0.70;0.60;;;;;;;;;;5087628;28;20521;-74
2022/09/12 12:57:22;;;;;;;1.40;0.70;;;;;;;;;;5083255;28;20439;-73
2022/09/12 12:59:51;;;;;;;0.70;0.67;;;;;;;;;;5085870;28;20935;-75
2022/09/12 13:02:22;;;;;;;0.70;0.70;;;;;;;;;;5085835;28;20457;-74
2022/09/12 13:04:50;;;;;;;4.73;0.87;;;;;;;;;;5083092;28;20484;-75
2022/09/12 13:07:24;;;;;;;0.80;0.73;;;;;;;;;;5077721;28;20477;-74
2022/09/12 13:09:51;;;;;;;0.70;0.60;;;;;;;;;;5083386;28;20440;-75
2022/09/12 13:12:20;;;;;;;0.80;0.70;;;;;;;;;;5095722;28;20434;-75
2022/09/12 13:14:58;;;;;;;1.17;1.07;;;;;;;;;;5083377;28;20447;-76
2022/09/12 13:17:28;;;;;;;0.70;0.50;;;;;;;;;;5077023;28;20935;-76
2022/09/12 13:20:04;;;;;;;0.70;0.60;;;;;;;;;;5088093;28;20978;-75
2022/09/12 13:22:51;;;;;;;0.70;0.50;;;;;;;;;;5087454;28;20485;-76
2022/09/12 13:25:25;;;;;;;0.70;0.50;;;;;;;;;;5083993;28;20426;-75
2022/09/12 13:27:56;;;;;;;0.87;0.87;;;;;;;;;;5080850;28;20435;-75
2022/09/12 13:30:23;;;;;;;0.80;0.70;;;;;;;;;;5090997;28;20534;-75
2022/09/12 13:32:51;;;;;;;0.93;0.83;;;;;;;;;;5081864;28;20460;-75
2022/09/12 13:35:25;;;;;;;0.80;0.60;;;;;;;;;;5073971;28;21029;-75
2022/09/12 13:37:54;;;;;;;1.03;0.73;;;;;;;;;;5077077;28;20423;-75
2022/09/12 13:40:27;;;;;;;1.00;0.60;;;;;;;;;;5086600;28;20894;-75
2022/09/12 13:43:14;;;;;;;1.40;1.03;;;;;;;;;;5078600;28;20784;-75
2022/09/12 13:45:45;;;;;;;0.70;0.60;;;;;;;;;;5078819;28;20503;-76
2022/09/12 13:48:18;;;;;;;0.70;0.50;;;;;;;;;;5086397;28;20431;-75
2022/09/12 13:50:49;;;;;;;0.70;0.60;;;;;;;;;;5073060;28;20555;-71
2022/09/12 13:53:18;;;;;;;0.83;0.70;;;;;;;;;;5078725;28;20806;-72
2022/09/12 13:55:50;;;;;;;1.77;1.43;;;;;;;;;;5079834;28;20856;-71
2022/09/12 13:58:21;;;;;;;0.70;0.50;;;;;;;;;;5085079;28;20547;-72
2022/09/12 14:01:05;;;;;;;0.80;0.77;;;;;;;;;;5073631;28;20904;-72
2022/09/12 14:06:26;;;;;;;2.50;1.23;;;;;;;;;;5074988;28;20482;-72
2022/09/12 14:08:57;;;;;;;1.77;1.10;;;;;;;;;;5085345;28;20958;-73
2022/09/12 14:11:37;;;;;;;;;;;;;;;;;;;;;
2022/09/12 14:14:16;;;;;;;0.80;0.63;;;;;;;;;;5085629;28;20511;-72
2022/09/12 14:16:45;;;;;;;0.83;0.80;;;;;;;;;;5085526;28;20827;-73
2022/09/12 14:19:17;;;;;;;0.70;0.50;;;;;;;;;;5094185;28;20469;-73
2022/09/12 14:21:44;;;;;;;0.80;0.70;;;;;;;;;;5085837;28;20917;-73
2022/09/12 14:24:12;;;;;;;1.00;0.90;;;;;;;;;;5084101;28;20446;-72
2022/09/12 14:26:43;;;;;;;0.70;0.60;;;;;;;;;;5068384;28;20525;-72
2022/09/12 14:29:15;;;;;;;0.70;0.50;;;;;;;;;;5086550;28;20439;-73
2022/09/12 14:32:02;;;;;;;1.00;0.90;;;;;;;;;;5087763;28;20431;-73
2022/09/12 14:34:31;;;;;;;0.80;0.80;;;;;;;;;;5094013;28;20458;-73
2022/09/12 14:37:05;;;;;;;0.70;0.60;;;;;;;;;;5088039;28;20462;-73
2022/09/12 14:39:36;;;;;;;0.70;0.57;;;;;;;;;;5084170;28;20488;-73
2022/09/12 14:42:04;;;;;;;0.80;0.80;;;;;;;;;;5078249;28;20426;-74
2022/09/12 14:44:32;;;;;;;0.73;0.60;;;;;;;;;;5081531;28;20474;-73
2022/09/12 14:47:01;;;;;;;0.80;0.70;;;;;;;;;;5082642;28;20857;-75
2022/09/12 14:49:30;;;;;;;0.70;0.57;;;;;;;;;;5085030;28;20426;-72
2022/09/12 14:51:59;;;;;;;0.90;0.60;;;;;;;;;;5085039;28;20557;-72
2022/09/12 14:54:41;;;;;;;1.03;0.80;;;;;;;;;;5078260;28;20453;-72
2022/09/12 14:57:29;;;;;;;0.70;0.60;;;;;;;;;;5085660;28;20438;-73
2022/09/12 15:00:04;;;;;;;0.70;0.60;;;;;;;;;;5091798;28;21041;-73
2022/09/12 15:02:31;;;;;;;0.80;0.60;;;;;;;;;;5084745;28;20449;-73
2022/09/12 15:05:15;;;;;;;0.80;0.60;;;;;;;;;;5076419;28;20438;-72
2022/09/12 15:07:50;;;;;;;0.80;0.70;;;;;;;;;;5083674;28;20430;-72
2022/09/12 15:10:21;;;;;;;1.07;0.97;;;;;;;;;;5085703;28;20818;-72
2022/09/12 15:12:48;;;;;;;0.80;0.80;;;;;;;;;;5080260;28;20470;-73
2022/09/12 15:15:17;;;;;;;0.80;0.60;;;;;;;;;;5081483;28;20514;-72